sensor_id;sensor_type;location;lat;lon;timestamp;P1;durP1;ratioP1;P2;durP2;ratioP2
12038;SDS011;6080;48.818;9.526;2022-10-16T00:02:24;78.00;;;73.37;;
12038;SDS011;6080;48.818;9.526;2022-10-16T00:04:50;94.03;;;89.03;;
12038;SDS011;6080;48.818;9.526;2022-10-16T00:07:16;108.90;;;102.57;;
12038;SDS011;6080;48.818;9.526;2022-10-16T00:09:42;137.97;;;130.47;;
12038;SDS011;6080;48.818;9.526;2022-10-16T00:12:07;101.40;;;96.10;;
12038;SDS011;6080;48.818;9.526;2022-10-16T00:14:33;64.30;;;60.77;;
12038;SDS011;6080;48.818;9.526;2022-10-16T00:16:59;83.00;;;78.40;;
12038;SDS011;6080;48.818;9.526;2022-10-16T00:19:25;117.83;;;111.77;;
12038;SDS011;6080;48.818;9.526;2022-10-16T00:21:51;100.20;;;94.73;;
12038;SDS011;6080;48.818;9.526;2022-10-16T00:24:16;119.47;;;113.07;;
12038;SDS011;6080;48.818;9.526;2022-10-16T00:26:42;117.50;;;110.70;;
12038;SDS011;6080;48.818;9.526;2022-10-16T00:29:08;98.87;;;93.10;;
12038;SDS011;6080;48.818;9.526;2022-10-16T00:31:34;77.73;;;73.23;;
12038;SDS011;6080;48.818;9.526;2022-10-16T00:34:01;120.57;;;114.10;;
12038;SDS011;6080;48.818;9.526;2022-10-16T00:36:27;123.90;;;116.87;;
12038;SDS011;6080;48.818;9.526;2022-10-16T00:38:54;144.60;;;137.03;;
12038;SDS011;6080;48.818;9.526;2022-10-16T00:41:21;164.80;;;155.17;;
12038;SDS011;6080;48.818;9.526;2022-10-16T00:43:52;148.73;;;139.93;;
12038;SDS011;6080;48.818;9.526;2022-10-16T00:46:29;125.80;;;118.73;;
12038;SDS011;6080;48.818;9.526;2022-10-16T00:49:06;129.57;;;121.80;;
12038;SDS011;6080;48.818;9.526;2022-10-16T00:51:39;97.83;;;92.33;;
12038;SDS011;6080;48.818;9.526;2022-10-16T00:54:22;101.53;;;95.90;;
12038;SDS011;6080;48.818;9.526;2022-10-16T00:56:50;124.07;;;116.67;;
12038;SDS011;6080;48.818;9.526;2022-10-16T00:59:19;115.43;;;109.17;;
12038;SDS011;6080;48.818;9.526;2022-10-16T01:01:49;122.00;;;115.10;;
12038;SDS011;6080;48.818;9.526;2022-10-16T01:04:16;116.37;;;109.53;;
12038;SDS011;6080;48.818;9.526;2022-10-16T01:06:46;109.43;;;103.53;;
12038;SDS011;6080;48.818;9.526;2022-10-16T01:12:14;114.57;;;107.87;;
12038;SDS011;6080;48.818;9.526;2022-10-16T01:17:28;99.77;;;94.70;;
12038;SDS011;6080;48.818;9.526;2022-10-16T01:22:28;104.57;;;98.67;;
12038;SDS011;6080;48.818;9.526;2022-10-16T01:25:05;67.03;;;63.33;;
12038;SDS011;6080;48.818;9.526;2022-10-16T01:27:37;82.07;;;77.43;;
12038;SDS011;6080;48.818;9.526;2022-10-16T01:30:12;34.27;;;32.27;;
12038;SDS011;6080;48.818;9.526;2022-10-16T01:35:35;29.80;;;28.20;;
12038;SDS011;6080;48.818;9.526;2022-10-16T01:38:05;109.17;;;103.10;;
12038;SDS011;6080;48.818;9.526;2022-10-16T01:40:39;103.60;;;97.77;;
12038;SDS011;6080;48.818;9.526;2022-10-16T01:43:14;93.70;;;88.67;;
12038;SDS011;6080;48.818;9.526;2022-10-16T01:45:44;102.90;;;97.30;;
12038;SDS011;6080;48.818;9.526;2022-10-16T01:48:15;72.57;;;68.23;;
12038;SDS011;6080;48.818;9.526;2022-10-16T01:50:44;83.40;;;79.03;;
12038;SDS011;6080;48.818;9.526;2022-10-16T01:53:19;91.43;;;86.17;;
12038;SDS011;6080;48.818;9.526;2022-10-16T01:55:47;91.80;;;86.47;;
12038;SDS011;6080;48.818;9.526;2022-10-16T01:58:15;89.67;;;84.63;;
12038;SDS011;6080;48.818;9.526;2022-10-16T02:00:42;101.63;;;95.77;;
12038;SDS011;6080;48.818;9.526;2022-10-16T02:03:11;94.90;;;90.10;;
12038;SDS011;6080;48.818;9.526;2022-10-16T02:08:07;83.00;;;78.27;;
12038;SDS011;6080;48.818;9.526;2022-10-16T02:10:34;107.43;;;101.90;;
12038;SDS011;6080;48.818;9.526;2022-10-16T02:13:03;124.00;;;116.63;;
12038;SDS011;6080;48.818;9.526;2022-10-16T02:15:34;94.23;;;88.83;;
12038;SDS011;6080;48.818;9.526;2022-10-16T02:18:01;81.77;;;77.53;;
12038;SDS011;6080;48.818;9.526;2022-10-16T02:20:29;95.70;;;90.57;;
12038;SDS011;6080;48.818;9.526;2022-10-16T02:22:59;98.10;;;92.33;;
12038;SDS011;6080;48.818;9.526;2022-10-16T02:25:36;104.30;;;98.17;;
12038;SDS011;6080;48.818;9.526;2022-10-16T02:30:46;67.20;;;63.30;;
12038;SDS011;6080;48.818;9.526;2022-10-16T02:33:21;79.60;;;74.90;;
12038;SDS011;6080;48.818;9.526;2022-10-16T02:35:50;30.77;;;29.10;;
12038;SDS011;6080;48.818;9.526;2022-10-16T02:38:17;34.30;;;31.83;;
12038;SDS011;6080;48.818;9.526;2022-10-16T02:40:44;45.97;;;42.67;;
12038;SDS011;6080;48.818;9.526;2022-10-16T02:43:10;24.93;;;23.20;;
12038;SDS011;6080;48.818;9.526;2022-10-16T02:45:37;30.53;;;28.27;;
12038;SDS011;6080;48.818;9.526;2022-10-16T02:48:03;27.87;;;25.87;;
12038;SDS011;6080;48.818;9.526;2022-10-16T02:50:29;17.10;;;15.90;;
12038;SDS011;6080;48.818;9.526;2022-10-16T02:52:54;21.70;;;20.43;;
12038;SDS011;6080;48.818;9.526;2022-10-16T02:55:20;15.77;;;14.47;;
12038;SDS011;6080;48.818;9.526;2022-10-16T02:57:46;29.47;;;27.13;;
12038;SDS011;6080;48.818;9.526;2022-10-16T03:00:13;32.37;;;30.00;;
12038;SDS011;6080;48.818;9.526;2022-10-16T03:02:41;45.00;;;42.00;;
12038;SDS011;6080;48.818;9.526;2022-10-16T03:05:07;72.73;;;68.27;;
12038;SDS011;6080;48.818;9.526;2022-10-16T03:07:33;38.87;;;36.17;;
12038;SDS011;6080;48.818;9.526;2022-10-16T03:09:59;28.93;;;26.97;;
12038;SDS011;6080;48.818;9.526;2022-10-16T03:12:25;17.70;;;16.57;;
12038;SDS011;6080;48.818;9.526;2022-10-16T03:14:52;15.27;;;14.37;;
12038;SDS011;6080;48.818;9.526;2022-10-16T03:17:18;50.83;;;47.60;;
12038;SDS011;6080;48.818;9.526;2022-10-16T03:19:44;99.23;;;93.73;;
12038;SDS011;6080;48.818;9.526;2022-10-16T03:22:09;113.57;;;106.67;;
12038;SDS011;6080;48.818;9.526;2022-10-16T03:24:35;109.93;;;103.83;;
12038;SDS011;6080;48.818;9.526;2022-10-16T03:27:01;106.07;;;100.20;;
12038;SDS011;6080;48.818;9.526;2022-10-16T03:29:27;105.87;;;99.97;;
12038;SDS011;6080;48.818;9.526;2022-10-16T03:31:54;80.17;;;75.83;;
12038;SDS011;6080;48.818;9.526;2022-10-16T03:34:21;84.60;;;80.27;;
12038;SDS011;6080;48.818;9.526;2022-10-16T03:36:47;79.17;;;74.17;;
12038;SDS011;6080;48.818;9.526;2022-10-16T03:39:12;72.43;;;68.07;;
12038;SDS011;6080;48.818;9.526;2022-10-16T03:41:38;74.20;;;70.10;;
12038;SDS011;6080;48.818;9.526;2022-10-16T03:44:04;75.77;;;71.77;;
12038;SDS011;6080;48.818;9.526;2022-10-16T03:46:31;75.97;;;72.03;;
12038;SDS011;6080;48.818;9.526;2022-10-16T03:48:56;73.73;;;69.43;;
12038;SDS011;6080;48.818;9.526;2022-10-16T03:51:22;104.53;;;98.60;;
12038;SDS011;6080;48.818;9.526;2022-10-16T03:53:48;77.67;;;72.27;;
12038;SDS011;6080;48.818;9.526;2022-10-16T03:56:14;86.03;;;81.60;;
12038;SDS011;6080;48.818;9.526;2022-10-16T03:58:39;79.60;;;75.27;;
12038;SDS011;6080;48.818;9.526;2022-10-16T04:01:05;86.17;;;81.23;;
12038;SDS011;6080;48.818;9.526;2022-10-16T04:03:31;82.60;;;78.23;;
12038;SDS011;6080;48.818;9.526;2022-10-16T04:05:57;82.97;;;78.33;;
12038;SDS011;6080;48.818;9.526;2022-10-16T04:08:22;80.27;;;75.67;;
12038;SDS011;6080;48.818;9.526;2022-10-16T04:10:48;73.50;;;69.60;;
12038;SDS011;6080;48.818;9.526;2022-10-16T04:13:14;80.50;;;76.10;;
12038;SDS011;6080;48.818;9.526;2022-10-16T04:15:40;78.27;;;73.90;;
12038;SDS011;6080;48.818;9.526;2022-10-16T04:18:06;63.63;;;59.60;;
12038;SDS011;6080;48.818;9.526;2022-10-16T04:20:32;69.73;;;65.83;;
12038;SDS011;6080;48.818;9.526;2022-10-16T04:22:59;54.90;;;51.90;;
12038;SDS011;6080;48.818;9.526;2022-10-16T04:25:25;56.90;;;53.53;;
12038;SDS011;6080;48.818;9.526;2022-10-16T04:27:52;20.50;;;19.00;;
12038;SDS011;6080;48.818;9.526;2022-10-16T04:30:18;62.97;;;57.93;;
12038;SDS011;6080;48.818;9.526;2022-10-16T04:32:47;22.87;;;21.47;;
12038;SDS011;6080;48.818;9.526;2022-10-16T04:35:14;12.97;;;12.00;;
12038;SDS011;6080;48.818;9.526;2022-10-16T04:37:41;16.10;;;14.87;;
12038;SDS011;6080;48.818;9.526;2022-10-16T04:40:06;18.87;;;17.57;;
12038;SDS011;6080;48.818;9.526;2022-10-16T04:42:32;14.70;;;13.70;;
12038;SDS011;6080;48.818;9.526;2022-10-16T04:44:58;16.13;;;14.60;;
12038;SDS011;6080;48.818;9.526;2022-10-16T04:47:24;18.17;;;16.73;;
12038;SDS011;6080;48.818;9.526;2022-10-16T04:49:50;19.53;;;17.43;;
12038;SDS011;6080;48.818;9.526;2022-10-16T04:52:15;15.30;;;13.27;;
12038;SDS011;6080;48.818;9.526;2022-10-16T04:54:42;38.07;;;29.90;;
12038;SDS011;6080;48.818;9.526;2022-10-16T04:57:10;23.27;;;21.47;;
12038;SDS011;6080;48.818;9.526;2022-10-16T04:59:36;22.20;;;20.30;;
12038;SDS011;6080;48.818;9.526;2022-10-16T05:02:02;13.20;;;12.33;;
12038;SDS011;6080;48.818;9.526;2022-10-16T05:04:28;18.10;;;16.37;;
12038;SDS011;6080;48.818;9.526;2022-10-16T05:06:54;35.97;;;33.33;;
12038;SDS011;6080;48.818;9.526;2022-10-16T05:09:20;21.17;;;16.80;;
12038;SDS011;6080;48.818;9.526;2022-10-16T05:11:46;67.20;;;18.07;;
12038;SDS011;6080;48.818;9.526;2022-10-16T05:14:11;36.77;;;11.43;;
12038;SDS011;6080;48.818;9.526;2022-10-16T05:16:37;33.77;;;31.90;;
12038;SDS011;6080;48.818;9.526;2022-10-16T05:19:03;92.20;;;86.87;;
12038;SDS011;6080;48.818;9.526;2022-10-16T05:21:29;151.30;;;141.97;;
12038;SDS011;6080;48.818;9.526;2022-10-16T05:23:55;51.33;;;46.53;;
12038;SDS011;6080;48.818;9.526;2022-10-16T05:26:20;24.17;;;11.40;;
12038;SDS011;6080;48.818;9.526;2022-10-16T05:28:46;20.53;;;17.73;;
12038;SDS011;6080;48.818;9.526;2022-10-16T05:31:12;16.50;;;11.03;;
12038;SDS011;6080;48.818;9.526;2022-10-16T05:33:38;35.73;;;32.73;;
12038;SDS011;6080;48.818;9.526;2022-10-16T05:36:04;58.03;;;52.93;;
12038;SDS011;6080;48.818;9.526;2022-10-16T05:38:33;74.80;;;64.97;;
12038;SDS011;6080;48.818;9.526;2022-10-16T05:40:59;86.40;;;80.03;;
12038;SDS011;6080;48.818;9.526;2022-10-16T05:43:26;94.57;;;86.50;;
12038;SDS011;6080;48.818;9.526;2022-10-16T05:45:53;66.33;;;59.60;;
12038;SDS011;6080;48.818;9.526;2022-10-16T05:48:20;99.20;;;92.23;;
12038;SDS011;6080;48.818;9.526;2022-10-16T05:50:46;95.43;;;89.77;;
12038;SDS011;6080;48.818;9.526;2022-10-16T05:53:11;67.20;;;62.23;;
12038;SDS011;6080;48.818;9.526;2022-10-16T05:55:37;51.77;;;47.10;;
12038;SDS011;6080;48.818;9.526;2022-10-16T05:58:03;73.90;;;69.43;;
12038;SDS011;6080;48.818;9.526;2022-10-16T06:00:29;57.23;;;53.53;;
12038;SDS011;6080;48.818;9.526;2022-10-16T06:02:54;58.30;;;55.13;;
12038;SDS011;6080;48.818;9.526;2022-10-16T06:05:20;43.73;;;41.33;;
12038;SDS011;6080;48.818;9.526;2022-10-16T06:07:46;20.83;;;19.53;;
12038;SDS011;6080;48.818;9.526;2022-10-16T06:10:11;21.50;;;20.07;;
12038;SDS011;6080;48.818;9.526;2022-10-16T06:12:37;32.40;;;30.50;;
12038;SDS011;6080;48.818;9.526;2022-10-16T06:15:03;29.60;;;27.73;;
12038;SDS011;6080;48.818;9.526;2022-10-16T06:17:29;35.17;;;32.93;;
12038;SDS011;6080;48.818;9.526;2022-10-16T06:19:55;48.37;;;45.67;;
12038;SDS011;6080;48.818;9.526;2022-10-16T06:22:21;101.23;;;95.50;;
12038;SDS011;6080;48.818;9.526;2022-10-16T06:24:46;184.37;;;174.03;;
12038;SDS011;6080;48.818;9.526;2022-10-16T06:27:12;172.03;;;162.20;;
12038;SDS011;6080;48.818;9.526;2022-10-16T06:29:38;209.20;;;197.83;;
12038;SDS011;6080;48.818;9.526;2022-10-16T06:32:04;219.27;;;207.80;;
12038;SDS011;6080;48.818;9.526;2022-10-16T06:34:31;240.50;;;227.33;;
12038;SDS011;6080;48.818;9.526;2022-10-16T06:36:57;238.20;;;224.20;;
12038;SDS011;6080;48.818;9.526;2022-10-16T06:39:23;220.53;;;208.37;;
12038;SDS011;6080;48.818;9.526;2022-10-16T06:41:48;170.23;;;158.63;;
12038;SDS011;6080;48.818;9.526;2022-10-16T06:44:14;17.27;;;15.60;;
12038;SDS011;6080;48.818;9.526;2022-10-16T06:46:40;80.07;;;75.47;;
12038;SDS011;6080;48.818;9.526;2022-10-16T06:49:06;124.20;;;117.27;;
12038;SDS011;6080;48.818;9.526;2022-10-16T06:51:31;143.07;;;135.53;;
12038;SDS011;6080;48.818;9.526;2022-10-16T06:53:59;139.77;;;132.00;;
12038;SDS011;6080;48.818;9.526;2022-10-16T06:56:26;160.23;;;151.70;;
12038;SDS011;6080;48.818;9.526;2022-10-16T06:58:53;195.87;;;184.93;;
12038;SDS011;6080;48.818;9.526;2022-10-16T07:01:20;211.47;;;200.40;;
12038;SDS011;6080;48.818;9.526;2022-10-16T07:03:48;107.33;;;98.87;;
12038;SDS011;6080;48.818;9.526;2022-10-16T07:06:15;76.73;;;72.50;;
12038;SDS011;6080;48.818;9.526;2022-10-16T07:08:44;28.93;;;27.33;;
12038;SDS011;6080;48.818;9.526;2022-10-16T07:11:12;27.80;;;26.07;;
12038;SDS011;6080;48.818;9.526;2022-10-16T07:13:40;303.77;;;286.93;;
12038;SDS011;6080;48.818;9.526;2022-10-16T07:16:17;152.87;;;143.87;;
12038;SDS011;6080;48.818;9.526;2022-10-16T07:18:45;27.53;;;25.80;;
12038;SDS011;6080;48.818;9.526;2022-10-16T07:21:14;23.23;;;21.50;;
12038;SDS011;6080;48.818;9.526;2022-10-16T07:23:50;21.67;;;20.40;;
12038;SDS011;6080;48.818;9.526;2022-10-16T07:26:20;22.57;;;21.33;;
12038;SDS011;6080;48.818;9.526;2022-10-16T07:28:46;22.27;;;20.80;;
12038;SDS011;6080;48.818;9.526;2022-10-16T07:31:13;23.43;;;22.03;;
12038;SDS011;6080;48.818;9.526;2022-10-16T07:33:40;24.00;;;22.30;;
12038;SDS011;6080;48.818;9.526;2022-10-16T07:36:10;16.40;;;15.00;;
12038;SDS011;6080;48.818;9.526;2022-10-16T07:38:37;11.53;;;10.43;;
12038;SDS011;6080;48.818;9.526;2022-10-16T07:41:04;12.50;;;11.73;;
12038;SDS011;6080;48.818;9.526;2022-10-16T07:43:35;26.63;;;25.30;;
12038;SDS011;6080;48.818;9.526;2022-10-16T07:46:01;21.60;;;20.30;;
12038;SDS011;6080;48.818;9.526;2022-10-16T07:48:28;15.90;;;14.77;;
12038;SDS011;6080;48.818;9.526;2022-10-16T07:51:00;9.77;;;9.27;;
12038;SDS011;6080;48.818;9.526;2022-10-16T07:53:28;8.60;;;8.10;;
12038;SDS011;6080;48.818;9.526;2022-10-16T07:56:00;8.93;;;8.30;;
12038;SDS011;6080;48.818;9.526;2022-10-16T07:58:28;8.23;;;7.60;;
12038;SDS011;6080;48.818;9.526;2022-10-16T08:00:54;9.53;;;9.03;;
12038;SDS011;6080;48.818;9.526;2022-10-16T08:03:21;9.67;;;8.80;;
12038;SDS011;6080;48.818;9.526;2022-10-16T08:05:47;11.90;;;11.00;;
12038;SDS011;6080;48.818;9.526;2022-10-16T08:08:13;12.57;;;11.53;;
12038;SDS011;6080;48.818;9.526;2022-10-16T08:10:40;11.10;;;10.30;;
12038;SDS011;6080;48.818;9.526;2022-10-16T08:13:06;12.23;;;11.37;;
12038;SDS011;6080;48.818;9.526;2022-10-16T08:15:32;37.47;;;35.30;;
12038;SDS011;6080;48.818;9.526;2022-10-16T08:17:59;56.67;;;53.60;;
12038;SDS011;6080;48.818;9.526;2022-10-16T08:20:27;37.47;;;35.20;;
12038;SDS011;6080;48.818;9.526;2022-10-16T08:22:53;30.83;;;29.03;;
12038;SDS011;6080;48.818;9.526;2022-10-16T08:25:19;36.87;;;34.50;;
12038;SDS011;6080;48.818;9.526;2022-10-16T08:27:46;44.20;;;41.40;;
12038;SDS011;6080;48.818;9.526;2022-10-16T08:30:12;52.63;;;49.63;;
12038;SDS011;6080;48.818;9.526;2022-10-16T08:32:38;99.63;;;94.30;;
12038;SDS011;6080;48.818;9.526;2022-10-16T08:35:04;72.93;;;69.03;;
12038;SDS011;6080;48.818;9.526;2022-10-16T08:37:31;61.97;;;58.70;;
12038;SDS011;6080;48.818;9.526;2022-10-16T08:39:58;56.00;;;52.67;;
12038;SDS011;6080;48.818;9.526;2022-10-16T08:48:20;110.47;;;104.63;;
12038;SDS011;6080;48.818;9.526;2022-10-16T08:50:51;34.07;;;32.17;;
12038;SDS011;6080;48.818;9.526;2022-10-16T08:53:20;45.00;;;42.50;;
12038;SDS011;6080;48.818;9.526;2022-10-16T08:55:58;39.53;;;36.90;;
12038;SDS011;6080;48.818;9.526;2022-10-16T08:58:28;32.07;;;30.13;;
12038;SDS011;6080;48.818;9.526;2022-10-16T09:00:56;25.13;;;23.70;;
12038;SDS011;6080;48.818;9.526;2022-10-16T09:16:48;28.90;;;27.37;;
12038;SDS011;6080;48.818;9.526;2022-10-16T09:19:23;20.07;;;18.90;;
12038;SDS011;6080;48.818;9.526;2022-10-16T09:21:56;17.67;;;16.53;;
12038;SDS011;6080;48.818;9.526;2022-10-16T09:24:25;32.03;;;29.97;;
12038;SDS011;6080;48.818;9.526;2022-10-16T09:26:51;31.20;;;29.57;;
12038;SDS011;6080;48.818;9.526;2022-10-16T09:29:18;35.57;;;33.63;;
12038;SDS011;6080;48.818;9.526;2022-10-16T09:31:46;14.60;;;13.63;;
12038;SDS011;6080;48.818;9.526;2022-10-16T09:34:34;31.67;;;29.77;;
12038;SDS011;6080;48.818;9.526;2022-10-16T09:37:05;28.33;;;26.63;;
12038;SDS011;6080;48.818;9.526;2022-10-16T09:42:16;25.97;;;24.27;;
12038;SDS011;6080;48.818;9.526;2022-10-16T09:44:51;74.47;;;70.40;;
12038;SDS011;6080;48.818;9.526;2022-10-16T09:47:23;99.13;;;93.83;;
12038;SDS011;6080;48.818;9.526;2022-10-16T09:49:51;97.03;;;92.23;;
12038;SDS011;6080;48.818;9.526;2022-10-16T09:52:23;68.03;;;64.50;;
12038;SDS011;6080;48.818;9.526;2022-10-16T09:54:56;33.70;;;31.70;;
12038;SDS011;6080;48.818;9.526;2022-10-16T09:57:26;32.27;;;30.53;;
12038;SDS011;6080;48.818;9.526;2022-10-16T09:59:53;35.37;;;33.33;;
12038;SDS011;6080;48.818;9.526;2022-10-16T10:02:27;17.42;;;16.27;;
12038;SDS011;6080;48.818;9.526;2022-10-16T10:04:56;23.05;;;21.63;;
12038;SDS011;6080;48.818;9.526;2022-10-16T10:07:26;29.27;;;27.63;;
12038;SDS011;6080;48.818;9.526;2022-10-16T10:10:01;9.32;;;8.60;;
12038;SDS011;6080;48.818;9.526;2022-10-16T10:12:30;7.68;;;6.13;;
12038;SDS011;6080;48.818;9.526;2022-10-16T10:15:04;14.93;;;13.98;;
12038;SDS011;6080;48.818;9.526;2022-10-16T10:17:50;12.48;;;11.38;;
12038;SDS011;6080;48.818;9.526;2022-10-16T10:20:31;12.27;;;11.10;;
12038;SDS011;6080;48.818;9.526;2022-10-16T10:22:59;13.27;;;12.52;;
12038;SDS011;6080;48.818;9.526;2022-10-16T10:25:30;14.75;;;13.68;;
12038;SDS011;6080;48.818;9.526;2022-10-16T10:30:56;15.73;;;14.50;;
12038;SDS011;6080;48.818;9.526;2022-10-16T10:33:31;24.17;;;22.92;;
12038;SDS011;6080;48.818;9.526;2022-10-16T10:39:12;24.50;;;23.00;;
12038;SDS011;6080;48.818;9.526;2022-10-16T10:55:58;18.83;;;17.85;;
12038;SDS011;6080;48.818;9.526;2022-10-16T10:58:38;15.57;;;14.50;;
12038;SDS011;6080;48.818;9.526;2022-10-16T11:04:34;9.02;;;8.40;;
12038;SDS011;6080;48.818;9.526;2022-10-16T11:09:45;5.05;;;4.47;;
12038;SDS011;6080;48.818;9.526;2022-10-16T11:12:16;8.52;;;4.60;;
12038;SDS011;6080;48.818;9.526;2022-10-16T11:15:07;4.80;;;3.67;;
12038;SDS011;6080;48.818;9.526;2022-10-16T11:17:39;4.22;;;3.97;;
12038;SDS011;6080;48.818;9.526;2022-10-16T11:20:18;4.25;;;4.03;;
12038;SDS011;6080;48.818;9.526;2022-10-16T11:22:53;5.65;;;5.20;;
12038;SDS011;6080;48.818;9.526;2022-10-16T11:25:22;14.48;;;13.63;;
12038;SDS011;6080;48.818;9.526;2022-10-16T11:27:54;7.07;;;6.70;;
12038;SDS011;6080;48.818;9.526;2022-10-16T11:30:29;8.52;;;4.43;;
12038;SDS011;6080;48.818;9.526;2022-10-16T11:35:38;4.40;;;3.33;;
12038;SDS011;6080;48.818;9.526;2022-10-16T11:40:54;4.55;;;3.10;;
12038;SDS011;6080;48.818;9.526;2022-10-16T11:46:11;4.97;;;4.78;;
12038;SDS011;6080;48.818;9.526;2022-10-16T11:48:43;20.83;;;19.85;;
12038;SDS011;6080;48.818;9.526;2022-10-16T11:56:54;6.57;;;3.45;;
12038;SDS011;6080;48.818;9.526;2022-10-16T11:59:30;8.60;;;8.00;;
12038;SDS011;6080;48.818;9.526;2022-10-16T12:02:33;9.73;;;9.00;;
12038;SDS011;6080;48.818;9.526;2022-10-16T12:08:32;18.08;;;17.17;;
12038;SDS011;6080;48.818;9.526;2022-10-16T12:10:41;39.53;;;37.38;;
12038;SDS011;6080;48.818;9.526;2022-10-16T12:13:27;44.40;;;42.00;;
12038;SDS011;6080;48.818;9.526;2022-10-16T12:16:04;50.55;;;48.00;;
12038;SDS011;6080;48.818;9.526;2022-10-16T12:18:41;49.28;;;46.72;;
12038;SDS011;6080;48.818;9.526;2022-10-16T12:21:09;38.42;;;36.42;;
12038;SDS011;6080;48.818;9.526;2022-10-16T12:23:47;55.85;;;52.97;;
12038;SDS011;6080;48.818;9.526;2022-10-16T12:26:23;55.15;;;52.60;;
12038;SDS011;6080;48.818;9.526;2022-10-16T12:28:51;48.53;;;46.17;;
12038;SDS011;6080;48.818;9.526;2022-10-16T12:31:17;59.95;;;56.80;;
12038;SDS011;6080;48.818;9.526;2022-10-16T12:33:53;36.85;;;34.67;;
12038;SDS011;6080;48.818;9.526;2022-10-16T12:36:27;38.75;;;36.80;;
12038;SDS011;6080;48.818;9.526;2022-10-16T12:38:58;18.00;;;17.08;;
12038;SDS011;6080;48.818;9.526;2022-10-16T12:41:26;26.10;;;24.83;;
12038;SDS011;6080;48.818;9.526;2022-10-16T12:43:54;27.42;;;25.90;;
12038;SDS011;6080;48.818;9.526;2022-10-16T12:46:41;23.73;;;22.25;;
12038;SDS011;6080;48.818;9.526;2022-10-16T12:51:38;26.77;;;25.10;;
12038;SDS011;6080;48.818;9.526;2022-10-16T12:54:25;19.63;;;18.70;;
12038;SDS011;6080;48.818;9.526;2022-10-16T13:02:32;21.60;;;20.40;;
12038;SDS011;6080;48.818;9.526;2022-10-16T13:10:53;7.88;;;7.47;;
12038;SDS011;6080;48.818;9.526;2022-10-16T13:21:33;29.67;;;28.15;;
12038;SDS011;6080;48.818;9.526;2022-10-16T13:24:29;42.35;;;40.15;;
12038;SDS011;6080;48.818;9.526;2022-10-16T13:27:29;17.30;;;16.30;;
12038;SDS011;6080;48.818;9.526;2022-10-16T13:30:10;5.95;;;5.53;;
12038;SDS011;6080;48.818;9.526;2022-10-16T13:32:45;4.40;;;4.10;;
12038;SDS011;6080;48.818;9.526;2022-10-16T13:35:26;3.67;;;3.38;;
12038;SDS011;6080;48.818;9.526;2022-10-16T13:38:03;6.05;;;3.22;;
12038;SDS011;6080;48.818;9.526;2022-10-16T13:40:58;4.00;;;3.67;;
12038;SDS011;6080;48.818;9.526;2022-10-16T13:43:31;5.00;;;4.60;;
12038;SDS011;6080;48.818;9.526;2022-10-16T13:46:06;3.40;;;3.17;;
12038;SDS011;6080;48.818;9.526;2022-10-16T13:48:39;5.63;;;5.32;;
12038;SDS011;6080;48.818;9.526;2022-10-16T13:53:42;4.50;;;4.30;;
12038;SDS011;6080;48.818;9.526;2022-10-16T13:56:15;5.18;;;4.55;;
12038;SDS011;6080;48.818;9.526;2022-10-16T13:58:43;3.53;;;3.33;;
12038;SDS011;6080;48.818;9.526;2022-10-16T14:01:29;9.98;;;5.38;;
12038;SDS011;6080;48.818;9.526;2022-10-16T14:04:05;7.07;;;6.40;;
12038;SDS011;6080;48.818;9.526;2022-10-16T14:06:33;7.35;;;6.82;;
12038;SDS011;6080;48.818;9.526;2022-10-16T14:09:04;6.10;;;5.70;;
12038;SDS011;6080;48.818;9.526;2022-10-16T14:11:33;6.63;;;6.03;;
12038;SDS011;6080;48.818;9.526;2022-10-16T14:14:02;7.10;;;6.47;;
12038;SDS011;6080;48.818;9.526;2022-10-16T14:16:28;6.53;;;6.22;;
12038;SDS011;6080;48.818;9.526;2022-10-16T14:19:02;5.00;;;4.80;;
12038;SDS011;6080;48.818;9.526;2022-10-16T14:21:32;3.80;;;3.60;;
12038;SDS011;6080;48.818;9.526;2022-10-16T14:23:59;9.07;;;7.40;;
12038;SDS011;6080;48.818;9.526;2022-10-16T14:26:40;10.07;;;9.43;;
12038;SDS011;6080;48.818;9.526;2022-10-16T14:29:14;10.65;;;10.13;;
12038;SDS011;6080;48.818;9.526;2022-10-16T14:31:43;13.90;;;13.05;;
12038;SDS011;6080;48.818;9.526;2022-10-16T14:34:33;17.10;;;15.90;;
12038;SDS011;6080;48.818;9.526;2022-10-16T14:37:23;16.23;;;15.30;;
12038;SDS011;6080;48.818;9.526;2022-10-16T14:39:52;20.08;;;18.90;;
12038;SDS011;6080;48.818;9.526;2022-10-16T14:42:19;22.45;;;21.13;;
12038;SDS011;6080;48.818;9.526;2022-10-16T14:44:49;21.65;;;20.65;;
12038;SDS011;6080;48.818;9.526;2022-10-16T14:47:20;34.00;;;31.67;;
12038;SDS011;6080;48.818;9.526;2022-10-16T14:49:50;39.38;;;36.92;;
12038;SDS011;6080;48.818;9.526;2022-10-16T14:52:16;32.20;;;30.63;;
12038;SDS011;6080;48.818;9.526;2022-10-16T14:54:42;37.22;;;35.33;;
12038;SDS011;6080;48.818;9.526;2022-10-16T14:57:18;36.42;;;34.47;;
12038;SDS011;6080;48.818;9.526;2022-10-16T14:59:46;39.92;;;37.40;;
12038;SDS011;6080;48.818;9.526;2022-10-16T15:02:25;24.50;;;23.05;;
12038;SDS011;6080;48.818;9.526;2022-10-16T15:04:57;4.53;;;4.30;;
12038;SDS011;6080;48.818;9.526;2022-10-16T15:07:26;14.95;;;9.70;;
12038;SDS011;6080;48.818;9.526;2022-10-16T15:09:52;21.85;;;17.27;;
12038;SDS011;6080;48.818;9.526;2022-10-16T15:12:18;19.20;;;17.98;;
12038;SDS011;6080;48.818;9.526;2022-10-16T15:14:44;21.88;;;20.13;;
12038;SDS011;6080;48.818;9.526;2022-10-16T15:17:10;11.88;;;7.40;;
12038;SDS011;6080;48.818;9.526;2022-10-16T15:19:39;10.52;;;5.38;;
12038;SDS011;6080;48.818;9.526;2022-10-16T15:22:05;10.88;;;7.97;;
12038;SDS011;6080;48.818;9.526;2022-10-16T15:24:31;15.15;;;11.60;;
12038;SDS011;6080;48.818;9.526;2022-10-16T15:26:57;9.43;;;8.32;;
12038;SDS011;6080;48.818;9.526;2022-10-16T15:29:22;10.48;;;8.43;;
12038;SDS011;6080;48.818;9.526;2022-10-16T15:31:49;12.98;;;9.88;;
12038;SDS011;6080;48.818;9.526;2022-10-16T15:34:15;16.33;;;11.25;;
12038;SDS011;6080;48.818;9.526;2022-10-16T15:36:43;24.05;;;7.10;;
12038;SDS011;6080;48.818;9.526;2022-10-16T15:39:12;19.02;;;12.73;;
12038;SDS011;6080;48.818;9.526;2022-10-16T15:41:41;15.05;;;13.30;;
12038;SDS011;6080;48.818;9.526;2022-10-16T15:44:08;30.17;;;27.90;;
12038;SDS011;6080;48.818;9.526;2022-10-16T15:46:33;61.67;;;57.65;;
12038;SDS011;6080;48.818;9.526;2022-10-16T15:49:00;60.92;;;57.05;;
12038;SDS011;6080;48.818;9.526;2022-10-16T15:51:26;50.40;;;46.70;;
12038;SDS011;6080;48.818;9.526;2022-10-16T15:53:55;46.60;;;43.03;;
12038;SDS011;6080;48.818;9.526;2022-10-16T15:56:22;28.80;;;26.80;;
12038;SDS011;6080;48.818;9.526;2022-10-16T15:58:50;20.88;;;19.10;;
12038;SDS011;6080;48.818;9.526;2022-10-16T16:01:19;13.00;;;11.63;;
12038;SDS011;6080;48.818;9.526;2022-10-16T16:03:46;7.70;;;7.05;;
12038;SDS011;6080;48.818;9.526;2022-10-16T16:06:12;23.60;;;21.92;;
12038;SDS011;6080;48.818;9.526;2022-10-16T16:08:38;58.13;;;54.25;;
12038;SDS011;6080;48.818;9.526;2022-10-16T16:11:11;41.72;;;39.15;;
12038;SDS011;6080;48.818;9.526;2022-10-16T16:13:38;26.03;;;24.43;;
12038;SDS011;6080;48.818;9.526;2022-10-16T16:16:06;15.45;;;13.85;;
12038;SDS011;6080;48.818;9.526;2022-10-16T16:18:36;11.77;;;8.90;;
12038;SDS011;6080;48.818;9.526;2022-10-16T16:21:02;5.53;;;5.13;;
12038;SDS011;6080;48.818;9.526;2022-10-16T16:23:28;6.70;;;5.50;;
12038;SDS011;6080;48.818;9.526;2022-10-16T16:26:05;12.33;;;10.83;;
12038;SDS011;6080;48.818;9.526;2022-10-16T16:28:36;71.47;;;67.77;;
12038;SDS011;6080;48.818;9.526;2022-10-16T16:31:03;101.83;;;96.47;;
12038;SDS011;6080;48.818;9.526;2022-10-16T16:33:29;33.43;;;31.50;;
12038;SDS011;6080;48.818;9.526;2022-10-16T16:35:59;24.30;;;22.27;;